METAR AND TAF INFORMATION
METAR FOR YGTE
ADDS - METARS form results

(2059 UTC 19 January 2018)
Data provider http://aviationweather.gov/adds/metars/
 
METAR text: YGTE 192000Z AUTO 33006KT 9999 // SCT018 BKN044 26/25 Q1004
Conditions at: YGTE (GROOTE EYLANDT , AU) observed 2000 UTC 19 January 2018
Temperature: 26.0°C (79°F)
Dewpoint: 25.0°C (77°F) [RH = 94%]
Pressure (altimeter): 29.65 inches Hg (1004.0 mb)
Winds: from the NNW (330 degrees) at 7 MPH (6 knots; 3.1 m/s)
Visibility: 6 or more miles (10+ km)
Ceiling: 4400 feet AGL
Clouds: scattered clouds at 1800 feet AGL
broken clouds at 4400 feet AGL
Weather: no significant weather observed at this time

 AIRPORT MAP

 RUNWAY INFORMATION
Runway 10 Runway length 6237 ft Runway width 98 ft
Runway elevation 30 ft Runway displaced threshold 0 ft Runway heading 100
Runway 28 Runway length 6237 ft Runway width 98 ft
Runway elevation 51 ft Runway displaced threshold 0 ft Runway heading 280

 AIRPORT FREQUENCIES
Type CTAF Name CTAF Frequency 126 MHZ
Type FSS Name BRISBANE C Frequency 122.2 MHZ

 AIRPORT NEAR NAVIGATION AIDS
Type NDB-DME Name Groote Eylandt Frequency 407 KHZ



Powered by Virtual Airlines Manager [v2.6.2]